Time;durP1;ratioP1;P1;durP2;ratioP2;P2;SDS_P1;SDS_P2;PMS_P1;PMS_P2;Temp;Humidity;BMP_temperature;BMP_pressure;BME280_temperature;BME280_humidity;BME280_pressure;Samples;Min_cycle;Max_cycle;Signal;HPM_P1;HPM_P2
2022/05/06 00:02:11;;;;;;;10.80;8.00;;;9.00;99.90;;;;;;5013475;28;20208;-84
2022/05/06 00:04:38;;;;;;;13.03;9.07;;;9.00;99.90;;;;;;5017185;28;20235;-84
2022/05/06 00:07:05;;;;;;;14.17;8.27;;;9.00;99.90;;;;;;5000980;28;20422;-84
2022/05/06 00:09:32;;;;;;;10.13;8.23;;;9.10;99.90;;;;;;5013560;28;20192;-83
2022/05/06 00:12:00;;;;;;;13.73;8.73;;;9.00;99.90;;;;;;5020766;28;20600;-85
2022/05/06 00:14:27;;;;;;;13.10;8.47;;;9.00;99.90;;;;;;5034046;28;20216;-83
2022/05/06 00:16:54;;;;;;;14.00;8.57;;;9.00;99.90;;;;;;5017535;28;20224;-85
2022/05/06 00:19:21;;;;;;;11.80;8.83;;;9.00;99.90;;;;;;5022048;28;20336;-84
2022/05/06 00:21:48;;;;;;;13.77;9.07;;;9.00;99.90;;;;;;5022330;28;20263;-85
2022/05/06 00:24:15;;;;;;;11.97;8.30;;;9.00;99.90;;;;;;5020389;28;21024;-84
2022/05/06 00:26:43;;;;;;;14.83;8.80;;;9.00;99.90;;;;;;5035563;28;20227;-84
2022/05/06 00:29:11;;;;;;;12.23;8.47;;;9.00;99.90;;;;;;5016860;28;20200;-83
2022/05/06 00:31:38;;;;;;;9.60;7.43;;;8.90;99.90;;;;;;5033686;28;20291;-83
2022/05/06 00:34:08;;;;;;;14.50;8.37;;;8.80;99.90;;;;;;5032437;28;20468;-84
2022/05/06 00:36:35;;;;;;;12.47;7.93;;;8.80;99.90;;;;;;5017971;28;20719;-83
2022/05/06 00:39:03;;;;;;;13.50;8.73;;;8.70;99.90;;;;;;5007265;28;20215;-83
2022/05/06 00:41:34;;;;;;;14.20;8.60;;;8.70;99.90;;;;;;5029734;28;20222;-83
2022/05/06 00:44:01;;;;;;;12.37;7.67;;;8.70;99.90;;;;;;5020661;28;20229;-84
2022/05/06 00:46:31;;;;;;;13.90;8.83;;;8.70;99.90;;;;;;5030013;28;20300;-84
2022/05/06 00:48:58;;;;;;;11.60;8.00;;;8.60;99.90;;;;;;5013766;28;20550;-85
2022/05/06 00:51:25;;;;;;;13.23;8.47;;;8.60;99.90;;;;;;5042409;28;20192;-83
2022/05/06 00:53:55;;;;;;;16.53;8.30;;;8.60;99.90;;;;;;5012459;28;20232;-84
2022/05/06 00:56:24;;;;;;;13.47;8.27;;;8.60;99.90;;;;;;5041009;28;20202;-83
2022/05/06 00:58:53;;;;;;;15.93;9.23;;;8.50;99.90;;;;;;5014574;28;20201;-83
2022/05/06 01:01:20;;;;;;;12.90;8.03;;;8.40;99.90;;;;;;5037105;28;20259;-83
2022/05/06 01:03:48;;;;;;;10.50;8.10;;;8.50;99.90;;;;;;5018706;28;20223;-85
2022/05/06 01:06:16;;;;;;;12.37;8.53;;;8.40;99.90;;;;;;5018613;28;20923;-83
2022/05/06 01:08:49;;;;;;;13.33;8.20;;;8.50;99.90;;;;;;5014506;28;20211;-85
2022/05/06 01:11:18;;;;;;;14.17;8.30;;;8.40;99.90;;;;;;5018264;28;20412;-84
2022/05/06 01:13:47;;;;;;;12.70;8.97;;;8.30;99.90;;;;;;5017161;28;20287;-85
2022/05/06 01:16:22;;;;;;;12.33;9.20;;;8.30;99.90;;;;;;5033717;28;20259;-83
2022/05/06 01:18:54;;;;;;;12.53;8.70;;;8.20;99.90;;;;;;5022270;28;20231;-84
2022/05/06 01:21:25;;;;;;;9.80;7.87;;;8.20;99.90;;;;;;5034563;28;20207;-83
2022/05/06 01:23:53;;;;;;;14.97;8.77;;;8.20;99.90;;;;;;5011236;28;20234;-85
2022/05/06 01:26:20;;;;;;;10.77;7.50;;;8.10;99.90;;;;;;5050298;28;20258;-83
2022/05/06 01:28:47;;;;;;;14.37;7.40;;;8.10;99.90;;;;;;5014672;28;20204;-84
2022/05/06 01:31:21;;;;;;;8.93;6.57;;;8.10;99.90;;;;;;5045378;28;20883;-83
2022/05/06 01:33:55;;;;;;;12.17;7.37;;;8.10;99.90;;;;;;5016114;28;20231;-85
2022/05/06 01:36:25;;;;;;;9.67;7.50;;;8.10;99.90;;;;;;5015681;28;20211;-83
2022/05/06 01:38:56;;;;;;;8.67;6.67;;;8.00;99.90;;;;;;5015675;28;20207;-85
2022/05/06 01:41:27;;;;;;;8.67;7.60;;;7.90;99.90;;;;;;5005688;28;20210;-83
2022/05/06 01:44:17;;;;;;;8.70;7.20;;;7.90;99.90;;;;;;5028010;28;20326;-84
2022/05/06 01:46:45;;;;;;;11.10;7.70;;;7.80;99.90;;;;;;5032480;28;20698;-85
2022/05/06 01:49:24;;;;;;;10.87;8.13;;;7.80;99.90;;;;;;5022397;28;20202;-84
2022/05/06 01:51:51;;;;;;;10.07;7.37;;;7.80;99.90;;;;;;5038327;28;20230;-85
2022/05/06 01:54:25;;;;;;;10.73;8.43;;;7.80;99.90;;;;;;5017099;28;20311;-84
2022/05/06 01:56:52;;;;;;;10.47;7.43;;;7.90;99.90;;;;;;5005092;28;20291;-84
2022/05/06 01:59:22;;;;;;;11.20;7.57;;;7.80;99.90;;;;;;5021974;28;20195;-83
2022/05/06 02:01:55;;;;;;;11.27;7.57;;;7.80;99.90;;;;;;5021116;28;20204;-85
2022/05/06 02:07:12;;;;;;;11.07;8.10;;;7.80;99.90;;;;;;5015148;28;20237;-83
2022/05/06 02:09:43;;;;;;;9.10;7.43;;;7.80;99.90;;;;;;5016450;28;20211;-84
2022/05/06 02:12:13;;;;;;;12.30;7.90;;;7.80;99.90;;;;;;5003234;28;20212;-84
2022/05/06 02:14:55;;;;;;;13.50;7.83;;;7.70;99.90;;;;;;5015388;28;20270;-85
2022/05/06 02:17:25;;;;;;;16.53;8.00;;;7.70;99.90;;;;;;5031247;28;20214;-84
2022/05/06 02:20:15;;;;;;;11.77;8.00;;;7.70;99.90;;;;;;5017049;28;20243;-84
2022/05/06 02:23:03;;;;;;;11.97;7.37;;;7.70;99.90;;;;;;5015236;28;20438;-83
2022/05/06 02:25:42;;;;;;;13.30;8.47;;;7.70;99.90;;;;;;5028989;28;20743;-84
2022/05/06 02:28:14;;;;;;;11.00;7.67;;;7.70;99.90;;;;;;5004808;28;20309;-84
2022/05/06 02:33:32;;;;;;;14.33;7.73;;;7.60;99.90;;;;;;5033240;28;20227;-84
2022/05/06 02:36:06;;;;;;;11.43;8.13;;;7.60;99.90;;;;;;5013683;28;20203;-84
2022/05/06 02:38:35;;;;;;;11.23;7.77;;;7.50;99.90;;;;;;5016822;28;20280;-84
2022/05/06 02:41:04;;;;;;;10.93;7.80;;;7.50;99.90;;;;;;5014039;28;20219;-84
2022/05/06 02:43:40;;;;;;;15.37;8.27;;;7.50;99.90;;;;;;5005400;28;20260;-84
2022/05/06 02:46:08;;;;;;;10.90;7.97;;;7.50;99.90;;;;;;5024121;28;20525;-84
2022/05/06 02:48:35;;;;;;;11.37;8.07;;;7.40;99.90;;;;;;5010571;28;20212;-84
2022/05/06 02:51:02;;;;;;;9.83;7.63;;;7.40;99.90;;;;;;5015193;28;20196;-84
2022/05/06 02:53:33;;;;;;;11.30;8.13;;;7.40;99.90;;;;;;5017351;28;20451;-83
2022/05/06 02:56:01;;;;;;;13.27;9.00;;;7.40;99.90;;;;;;5012725;28;20211;-83
2022/05/06 02:58:39;;;;;;;10.57;8.37;;;7.30;99.90;;;;;;5007283;28;20242;-83
2022/05/06 03:01:05;;;;;;;12.57;7.97;;;7.30;99.90;;;;;;5011934;28;20203;-84
2022/05/06 03:03:37;;;;;;;13.73;9.30;;;7.30;99.90;;;;;;5016853;28;20320;-83
2022/05/06 03:06:10;;;;;;;11.43;8.63;;;7.30;99.90;;;;;;5014027;28;20247;-84
2022/05/06 03:08:38;;;;;;;11.40;9.03;;;7.30;99.90;;;;;;5016610;28;20234;-83
2022/05/06 03:11:05;;;;;;;12.33;9.17;;;7.20;99.90;;;;;;5012742;28;20295;-83
2022/05/06 03:13:38;;;;;;;12.53;8.93;;;7.10;99.90;;;;;;5015165;28;20227;-83
2022/05/06 03:16:09;;;;;;;11.30;8.83;;;7.10;99.90;;;;;;5011026;28;20783;-83
2022/05/06 03:18:37;;;;;;;12.50;9.30;;;7.10;99.90;;;;;;5017838;28;20694;-84
2022/05/06 03:21:04;;;;;;;16.30;9.73;;;7.10;99.90;;;;;;5024093;28;20700;-83
2022/05/06 03:23:31;;;;;;;13.73;8.97;;;7.10;99.90;;;;;;5032217;28;20215;-83
2022/05/06 03:25:57;;;;;;;12.53;9.10;;;7.00;99.90;;;;;;5012988;28;20215;-84
2022/05/06 03:28:24;;;;;;;15.40;9.00;;;6.90;99.90;;;;;;5033030;28;20227;-83
2022/05/06 03:30:53;;;;;;;13.33;8.80;;;6.80;99.90;;;;;;5002905;28;20222;-85
2022/05/06 03:33:31;;;;;;;15.00;9.60;;;6.80;99.90;;;;;;5011932;28;20212;-83
2022/05/06 03:36:03;;;;;;;11.57;8.63;;;6.70;99.90;;;;;;5001735;28;20199;-84
2022/05/06 03:38:35;;;;;;;16.40;9.70;;;6.70;99.90;;;;;;5009474;28;20211;-83
2022/05/06 03:41:03;;;;;;;16.03;9.57;;;6.60;99.90;;;;;;5014132;28;20262;-84
2022/05/06 03:43:30;;;;;;;16.50;10.93;;;6.60;99.90;;;;;;5018692;28;20641;-83
2022/05/06 03:46:07;;;;;;;21.70;13.10;;;6.60;99.90;;;;;;5004088;28;20711;-84
2022/05/06 03:48:35;;;;;;;26.03;15.60;;;6.60;99.90;;;;;;5020736;28;20203;-84
2022/05/06 03:51:21;;;;;;;37.83;14.97;;;6.70;99.90;;;;;;5008918;28;20216;-85
2022/05/06 03:53:50;;;;;;;82.03;16.27;;;6.70;99.90;;;;;;5015541;28;20225;-85
2022/05/06 03:56:18;;;;;;;35.83;15.77;;;6.80;99.90;;;;;;5016136;28;20210;-84
2022/05/06 03:58:45;;;;;;;29.93;15.00;;;6.80;99.90;;;;;;5016500;28;20740;-85
2022/05/06 04:01:18;;;;;;;37.43;17.03;;;6.80;99.90;;;;;;5001564;28;20839;-85
2022/05/06 04:03:49;;;;;;;36.97;16.47;;;6.90;99.90;;;;;;5037861;28;20277;-84
2022/05/06 04:06:38;;;;;;;39.10;16.27;;;6.90;99.90;;;;;;5033069;28;20480;-84
2022/05/06 04:09:05;;;;;;;36.53;16.30;;;6.90;99.90;;;;;;5021134;28;20225;-85
2022/05/06 04:11:36;;;;;;;40.30;16.70;;;6.90;99.90;;;;;;5012579;28;20463;-84
2022/05/06 04:14:06;;;;;;;79.50;13.77;;;6.90;99.90;;;;;;5018197;28;20637;-84
2022/05/06 04:16:39;;;;;;;99.93;16.90;;;7.00;99.90;;;;;;5005593;28;20204;-84
2022/05/06 04:19:16;;;;;;;116.30;17.60;;;6.90;99.90;;;;;;5017286;28;20199;-85
2022/05/06 04:24:34;;;;;;;91.33;15.60;;;6.90;99.90;;;;;;5011709;28;20396;-85
2022/05/06 04:27:01;;;;;;;54.00;14.67;;;6.80;99.90;;;;;;5016340;28;20305;-84
2022/05/06 04:29:29;;;;;;;88.07;16.43;;;6.80;99.90;;;;;;5013129;28;20239;-86
2022/05/06 04:31:57;;;;;;;31.20;15.17;;;6.90;99.90;;;;;;5012424;28;20236;-84
2022/05/06 04:34:25;;;;;;;36.17;15.83;;;6.90;99.90;;;;;;5030456;28;20249;-86
2022/05/06 04:36:53;;;;;;;29.67;14.50;;;6.90;99.90;;;;;;5035236;28;20233;-85
2022/05/06 04:39:20;;;;;;;60.57;16.20;;;7.00;99.90;;;;;;5035562;28;20206;-86
2022/05/06 04:41:50;;;;;;;52.77;16.40;;;7.00;99.90;;;;;;5051926;28;20210;-85
2022/05/06 04:44:25;;;;;;;32.47;15.80;;;7.00;99.90;;;;;;5009238;28;20223;-85
2022/05/06 04:46:54;;;;;;;76.27;17.40;;;7.00;99.90;;;;;;5023774;28;20568;-85
2022/05/06 04:49:23;;;;;;;36.27;16.77;;;7.00;99.90;;;;;;5009441;28;20211;-86
2022/05/06 04:51:51;;;;;;;65.50;17.63;;;7.00;99.90;;;;;;5012411;28;20202;-85
2022/05/06 04:54:19;;;;;;;45.10;18.10;;;7.00;99.90;;;;;;5032575;28;20214;-86
2022/05/06 04:56:48;;;;;;;82.73;19.30;;;7.10;99.90;;;;;;5036053;28;20203;-84
2022/05/06 04:59:22;;;;;;;120.47;19.93;;;7.10;99.90;;;;;;5014933;28;20231;-86
2022/05/06 05:01:52;;;;;;;76.00;18.53;;;7.10;99.90;;;;;;5006019;28;20200;-85
2022/05/06 05:04:19;;;;;;;76.47;18.47;;;7.20;99.90;;;;;;5026594;28;20223;-85
2022/05/06 05:06:49;;;;;;;47.40;17.90;;;7.20;99.90;;;;;;5028805;28;20211;-84
2022/05/06 05:09:19;;;;;;;41.53;19.10;;;7.20;99.90;;;;;;5013505;28;20206;-86
2022/05/06 05:11:48;;;;;;;54.77;19.50;;;7.30;99.90;;;;;;5028839;28;20200;-84
2022/05/06 05:14:21;;;;;;;84.80;19.23;;;7.40;99.90;;;;;;5023713;28;20220;-84
2022/05/06 05:16:50;;;;;;;102.00;21.30;;;7.40;99.90;;;;;;5008805;28;20657;-82
2022/05/06 05:19:18;;;;;;;58.37;20.70;;;7.40;99.90;;;;;;5003504;28;20212;-84
2022/05/06 05:21:53;;;;;;;109.43;21.67;;;7.40;99.90;;;;;;5033919;28;20194;-84
2022/05/06 05:24:21;;;;;;;96.57;19.77;;;7.40;99.90;;;;;;5025511;28;20251;-84
2022/05/06 05:26:47;;;;;;;56.83;19.07;;;7.40;99.90;;;;;;5031362;28;20259;-84
2022/05/06 05:29:18;;;;;;;61.30;18.57;;;7.40;99.90;;;;;;5009610;28;20204;-84
2022/05/06 05:31:46;;;;;;;41.70;18.43;;;7.40;99.90;;;;;;5010986;28;20211;-82
2022/05/06 05:34:13;;;;;;;62.03;19.07;;;7.50;99.90;;;;;;5003570;28;20589;-82
2022/05/06 05:36:41;;;;;;;58.17;18.33;;;7.50;99.90;;;;;;5037034;28;20259;-81
2022/05/06 05:39:11;;;;;;;41.67;18.00;;;7.50;99.90;;;;;;5007989;28;20207;-82
2022/05/06 05:41:39;;;;;;;52.30;18.70;;;7.60;99.90;;;;;;5029228;28;20405;-82
2022/05/06 05:49:37;;;;;;;33.23;16.53;;;7.60;99.90;;;;;;4999854;28;20204;-82
2022/05/06 05:52:05;;;;;;;37.87;18.17;;;7.70;99.90;;;;;;5011357;28;20280;-81
2022/05/06 05:54:34;;;;;;;47.97;18.33;;;7.70;99.90;;;;;;5005998;28;20509;-82
2022/05/06 05:57:02;;;;;;;42.90;18.93;;;7.80;99.90;;;;;;5017695;28;20227;-82
2022/05/06 05:59:28;;;;;;;54.17;17.87;;;7.90;99.90;;;;;;5003013;28;20493;-81
2022/05/06 06:02:00;;;;;;;31.87;18.07;;;7.90;99.90;;;;;;5055677;28;20294;-81
2022/05/06 06:04:29;;;;;;;33.33;18.13;;;7.90;99.90;;;;;;4997930;28;20889;-82
2022/05/06 06:06:57;;;;;;;32.87;17.53;;;8.10;99.90;;;;;;5015559;28;20216;-83
2022/05/06 06:09:27;;;;;;;44.83;17.97;;;8.10;99.90;;;;;;5000999;28;20460;-81
2022/05/06 06:12:01;;;;;;;35.50;18.00;;;8.10;99.90;;;;;;5030510;28;20199;-83
2022/05/06 06:14:27;;;;;;;36.57;18.83;;;8.20;99.90;;;;;;5010514;28;20220;-82
2022/05/06 06:16:56;;;;;;;34.03;19.30;;;8.10;99.90;;;;;;5014278;28;20195;-82
2022/05/06 06:19:25;;;;;;;37.80;18.93;;;8.20;99.90;;;;;;5011240;28;20416;-81
2022/05/06 06:21:52;;;;;;;35.00;19.97;;;8.30;99.90;;;;;;5028283;28;20568;-83
2022/05/06 06:24:22;;;;;;;37.13;19.37;;;8.40;99.90;;;;;;5016543;28;20255;-84
2022/05/06 06:26:53;;;;;;;41.03;21.13;;;8.50;99.90;;;;;;5020750;28;20330;-82
2022/05/06 06:29:25;;;;;;;35.00;20.70;;;8.60;99.90;;;;;;5017187;28;20196;-84
2022/05/06 06:31:57;;;;;;;34.83;18.77;;;8.60;99.90;;;;;;5008294;28;20206;-81
2022/05/06 06:34:25;;;;;;;41.33;20.77;;;8.70;99.90;;;;;;5008072;28;20420;-83
2022/05/06 06:36:52;;;;;;;38.07;20.93;;;8.80;99.90;;;;;;4996428;28;20228;-84
2022/05/06 06:39:19;;;;;;;38.47;21.03;;;8.90;99.90;;;;;;5019934;28;20676;-84
2022/05/06 06:41:48;;;;;;;40.43;19.50;;;9.00;99.90;;;;;;5007872;28;20204;-82
2022/05/06 06:44:22;;;;;;;37.37;19.90;;;9.10;99.90;;;;;;5002772;28;20654;-84
2022/05/06 06:47:10;;;;;;;38.90;20.00;;;9.10;99.90;;;;;;5011317;28;20219;-83
2022/05/06 06:50:11;;;;;;;38.27;19.57;;;9.10;99.90;;;;;;5028980;28;20196;-85
2022/05/06 06:52:51;;;;;;;33.93;19.03;;;9.20;99.90;;;;;;5026717;28;20208;-82
2022/05/06 06:55:18;;;;;;;34.43;20.33;;;9.30;99.90;;;;;;5020723;28;20256;-84
2022/05/06 06:57:45;;;;;;;36.50;18.87;;;9.40;99.90;;;;;;5009854;28;20203;-83
2022/05/06 07:00:13;;;;;;;36.23;20.23;;;9.50;99.90;;;;;;5011233;28;20219;-84
2022/05/06 07:02:42;;;;;;;36.00;19.50;;;9.60;99.90;;;;;;5030737;28;20203;-85
2022/05/06 07:05:09;;;;;;;39.87;20.63;;;9.60;99.90;;;;;;5031626;28;20262;-85
2022/05/06 07:11:52;;;;;;;35.50;19.70;;;9.80;99.90;;;;;;5020716;28;20277;-85
2022/05/06 07:13:28;;;;;;;41.33;20.70;;;9.90;99.90;;;;;;5002753;28;20317;-82
2022/05/06 07:15:55;;;;;;;41.50;20.33;;;10.10;99.90;;;;;;5012070;28;20294;-83
2022/05/06 07:18:23;;;;;;;34.80;19.83;;;10.20;99.90;;;;;;4994962;28;20211;-85
2022/05/06 07:20:50;;;;;;;35.87;20.67;;;10.30;99.90;;;;;;5027973;28;20553;-83
2022/05/06 07:23:16;;;;;;;41.30;21.23;;;10.40;99.90;;;;;;4992558;28;20218;-85
2022/05/06 07:25:43;;;;;;;37.93;20.50;;;10.60;99.90;;;;;;5006609;28;20204;-83
2022/05/06 07:28:13;;;;;;;34.20;17.93;;;10.70;99.90;;;;;;5003365;28;20285;-85
2022/05/06 07:30:40;;;;;;;35.93;20.53;;;10.80;99.90;;;;;;5008403;28;20250;-84
2022/05/06 07:33:06;;;;;;;34.37;20.00;;;10.90;99.90;;;;;;5012248;28;20468;-85
2022/05/06 07:35:36;;;;;;;33.37;19.17;;;11.00;99.90;;;;;;5006133;28;20215;-84
2022/05/06 07:38:03;;;;;;;35.73;19.17;;;11.10;99.90;;;;;;5035168;28;20200;-84
2022/05/06 07:40:29;;;;;;;33.60;18.00;;;11.30;99.90;;;;;;5009689;28;20613;-84
2022/05/06 07:42:56;;;;;;;31.80;18.80;;;11.40;99.90;;;;;;5005767;28;20218;-81
2022/05/06 07:45:22;;;;;;;26.90;16.90;;;11.50;99.90;;;;;;5000712;28;20453;-82
2022/05/06 07:47:50;;;;;;;25.50;15.83;;;11.70;99.90;;;;;;5034024;28;20224;-82
2022/05/06 07:50:16;;;;;;;25.23;16.27;;;11.80;99.90;;;;;;5041970;28;20207;-83
2022/05/06 07:52:44;;;;;;;26.93;15.20;;;12.00;99.90;;;;;;5027317;28;20195;-82
2022/05/06 07:55:14;;;;;;;25.67;15.53;;;12.20;99.90;;;;;;5002901;28;20262;-83
2022/05/06 07:57:40;;;;;;;20.83;13.20;;;12.30;99.90;;;;;;5022939;28;20196;-82
2022/05/06 08:00:08;;;;;;;21.50;13.77;;;12.40;99.90;;;;;;5025157;28;20208;-83
2022/05/06 08:05:27;;;;;;;20.00;13.10;;;12.60;99.90;;;;;;5028750;28;20215;-82
2022/05/06 08:07:56;;;;;;;20.93;13.27;;;12.70;99.90;;;;;;5013965;28;20330;-82
2022/05/06 08:10:22;;;;;;;18.13;12.37;;;12.80;99.90;;;;;;5016969;28;20719;-82
2022/05/06 08:12:50;;;;;;;18.43;13.07;;;12.80;99.90;;;;;;5016125;28;20365;-82
2022/05/06 08:15:17;;;;;;;19.93;13.10;;;12.90;99.90;;;;;;5021509;28;20220;-83
2022/05/06 08:17:44;;;;;;;20.87;12.93;;;12.90;99.90;;;;;;5041162;28;20199;-81
2022/05/06 08:20:12;;;;;;;16.03;12.17;;;;;;;;;;5027842;28;20210;-83
2022/05/06 08:22:39;;;;;;;19.93;12.93;;;13.40;99.90;;;;;;5013532;28;20267;-79
2022/05/06 08:25:09;;;;;;;17.43;12.97;;;13.50;99.90;;;;;;5008181;28;20228;-83
2022/05/06 08:27:37;;;;;;;18.50;12.13;;;13.70;99.90;;;;;;5008887;28;20231;-82
2022/05/06 08:30:05;;;;;;;16.23;11.00;;;;;;;;;;5026958;28;20762;-83
2022/05/06 08:32:37;;;;;;;13.67;11.80;;;14.10;99.90;;;;;;5034158;28;21791;-83
2022/05/06 08:35:05;;;;;;;15.50;11.97;;;14.20;99.90;;;;;;5013523;28;20476;-82
2022/05/06 08:37:40;;;;;;;17.93;12.17;;;14.20;99.90;;;;;;5035909;28;20199;-83
2022/05/06 08:40:16;;;;;;;15.67;11.53;;;14.20;99.90;;;;;;5025183;28;20390;-84
2022/05/06 08:42:43;;;;;;;16.60;11.90;;;14.30;99.90;;;;;;5006426;28;20211;-82
2022/05/06 08:50:53;;;;;;;17.00;12.50;;;14.50;99.90;;;;;;5026639;28;20207;-84
2022/05/06 08:53:22;;;;;;;15.63;11.10;;;14.60;99.90;;;;;;5014043;28;20205;-84
2022/05/06 08:55:52;;;;;;;16.43;11.93;;;14.80;99.90;;;;;;5012463;28;20203;-81
2022/05/06 08:58:20;;;;;;;12.13;10.30;;;15.00;99.90;;;;;;5031628;28;20278;-84
2022/05/06 09:00:47;;;;;;;15.27;11.03;;;15.10;99.90;;;;;;5027551;28;20199;-84
2022/05/06 09:03:15;;;;;;;13.47;11.00;;;15.10;99.90;;;;;;5031877;28;20250;-83
2022/05/06 09:05:52;;;;;;;18.13;11.37;;;15.20;99.90;;;;;;5028100;28;20212;-86
2022/05/06 09:08:20;;;;;;;13.73;9.80;;;15.30;99.90;;;;;;5028413;28;20274;-83
2022/05/06 09:11:03;;;;;;;13.37;9.73;;;15.30;99.90;;;;;;5021123;28;21010;-86
2022/05/06 09:13:31;;;;;;;13.70;10.13;;;15.40;99.90;;;;;;5000889;28;20235;-84
2022/05/06 09:19:10;;;;;;;10.90;9.70;;;15.40;99.90;;;;;;5027597;28;20195;-84
2022/05/06 09:21:37;;;;;;;8.93;7.93;;;15.50;99.90;;;;;;5001883;28;20311;-83
2022/05/06 09:24:17;;;;;;;8.17;6.77;;;15.50;99.90;;;;;;5013592;28;20212;-84
2022/05/06 09:26:58;;;;;;;13.63;9.63;;;15.60;99.90;;;;;;5003868;28;20262;-85
2022/05/06 09:29:36;;;;;;;14.90;10.40;;;15.60;99.90;;;;;;5029033;28;20261;-84
2022/05/06 09:32:18;;;;;;;13.80;9.73;;;15.60;99.90;;;;;;5030288;28;20848;-80
2022/05/06 09:34:47;;;;;;;12.70;9.27;;;15.70;99.90;;;;;;5039662;28;21077;-82
2022/05/06 09:37:33;;;;;;;10.50;8.00;;;15.80;99.90;;;;;;5014223;28;20191;-84
2022/05/06 09:40:05;;;;;;;12.17;8.70;;;16.00;99.90;;;;;;5029297;28;20282;-83
2022/05/06 09:42:34;;;;;;;16.73;11.13;;;16.10;99.90;;;;;;5029209;28;20192;-84
2022/05/06 09:45:01;;;;;;;14.63;11.10;;;16.30;99.90;;;;;;5023890;28;20365;-83
2022/05/06 09:47:29;;;;;;;16.40;11.63;;;16.30;99.90;;;;;;5027329;28;20650;-85
2022/05/06 09:49:58;;;;;;;12.90;10.17;;;16.40;99.90;;;;;;5032161;28;20245;-83
2022/05/06 09:52:25;;;;;;;15.20;10.73;;;16.40;99.90;;;;;;5031326;28;20546;-83
2022/05/06 09:54:53;;;;;;;14.87;11.30;;;16.50;99.90;;;;;;5030425;28;20220;-81
2022/05/06 09:57:20;;;;;;;19.10;11.97;;;16.70;99.90;;;;;;5033390;28;20192;-82
2022/05/06 09:59:50;;;;;;;16.47;11.10;;;16.70;99.90;;;;;;5029617;28;20184;-82
2022/05/06 10:02:17;;;;;;;15.67;11.33;;;16.70;99.90;;;;;;5009324;28;20204;-82
2022/05/06 10:04:47;;;;;;;13.60;11.50;;;16.70;99.90;;;;;;5041729;28;20215;-82
2022/05/06 10:07:16;;;;;;;15.83;11.43;;;16.60;99.90;;;;;;5015994;28;20223;-83
2022/05/06 10:09:51;;;;;;;15.73;10.37;;;16.60;99.90;;;;;;5012985;28;20204;-83
2022/05/06 10:12:20;;;;;;;15.63;11.23;;;16.60;99.90;;;;;;5033171;28;20199;-82
2022/05/06 10:14:49;;;;;;;16.63;11.13;;;16.70;99.90;;;;;;5033435;28;20233;-84
2022/05/06 10:17:46;;;;;;;17.13;11.30;;;16.70;99.90;;;;;;5023097;28;20622;-83
2022/05/06 10:20:32;;;;;;;16.17;10.33;;;16.80;99.90;;;;;;5035654;28;20235;-83
2022/05/06 10:23:02;;;;;;;14.80;10.93;;;16.90;99.90;;;;;;5026433;28;20204;-84
2022/05/06 10:25:49;;;;;;;13.13;10.07;;;16.90;99.90;;;;;;5004829;28;20220;-84
2022/05/06 10:34:33;;;;;;;17.63;12.07;;;17.10;99.90;;;;;;5023954;28;20750;-84
2022/05/06 10:37:02;;;;;;;13.07;10.67;;;17.10;99.90;;;;;;5015148;28;20191;-84
2022/05/06 10:39:37;;;;;;;14.20;10.70;;;16.90;99.90;;;;;;5017284;28;20200;-84
2022/05/06 10:42:06;;;;;;;14.33;10.63;;;17.10;99.90;;;;;;5016593;28;20607;-83
2022/05/06 10:44:37;;;;;;;14.37;10.83;;;17.30;99.90;;;;;;5023872;28;20641;-85
2022/05/06 10:47:44;;;;;;;14.00;9.97;;;17.40;99.90;;;;;;5007588;28;20208;-84
2022/05/06 10:50:18;;;;;;;11.83;9.13;;;17.40;99.90;;;;;;5022548;28;20200;-83
2022/05/06 10:52:46;;;;;;;13.27;9.47;;;17.40;99.90;;;;;;5010665;28;20572;-83
2022/05/06 10:55:15;;;;;;;11.77;8.87;;;17.50;99.90;;;;;;5025961;28;20224;-84
2022/05/06 10:57:51;;;;;;;14.33;8.77;;;17.50;99.90;;;;;;5027867;28;20199;-84
2022/05/06 11:00:19;;;;;;;10.37;8.60;;;17.80;99.90;;;;;;5030078;28;20290;-84
2022/05/06 11:02:46;;;;;;;10.27;8.10;;;17.90;99.90;;;;;;4996622;28;20196;-84
2022/05/06 11:05:14;;;;;;;11.60;8.33;;;18.00;99.90;;;;;;5014310;28;20227;-85
2022/05/06 11:07:45;;;;;;;9.90;7.30;;;17.90;99.90;;;;;;5015286;28;20216;-84
2022/05/06 11:10:14;;;;;;;11.50;6.83;;;17.90;99.90;;;;;;5030777;28;20255;-84
2022/05/06 11:12:44;;;;;;;11.70;8.47;;;18.00;99.90;;;;;;5002623;28;20200;-83
2022/05/06 11:15:14;;;;;;;9.10;7.73;;;17.90;99.90;;;;;;5002661;28;20230;-85
2022/05/06 11:17:42;;;;;;;14.30;9.37;;;17.90;99.90;;;;;;5011505;28;21943;-85
2022/05/06 11:20:18;;;;;;;10.50;8.13;;;18.00;99.90;;;;;;5039580;28;20198;-86
2022/05/06 11:22:54;;;;;;;11.40;8.00;;;18.20;99.90;;;;;;5019960;28;20390;-85
2022/05/06 11:25:22;;;;;;;13.47;9.87;;;18.40;99.90;;;;;;5013844;28;20231;-84
2022/05/06 11:27:50;;;;;;;11.60;8.93;;;18.40;99.90;;;;;;5026529;28;20942;-85
2022/05/06 11:30:18;;;;;;;11.23;9.03;;;18.40;99.90;;;;;;5030427;28;20708;-85
2022/05/06 11:32:50;;;;;;;13.67;7.97;;;18.50;99.90;;;;;;5012732;28;20299;-84
2022/05/06 11:35:21;;;;;;;12.80;8.67;;;18.50;99.90;;;;;;5032077;28;20223;-84
2022/05/06 11:37:48;;;;;;;12.50;8.70;;;18.70;99.90;;;;;;5027142;28;20266;-84
2022/05/06 11:40:37;;;;;;;10.73;8.60;;;18.80;99.30;;;;;;5012519;28;20493;-84
2022/05/06 11:43:09;;;;;;;10.83;8.17;;;18.80;98.80;;;;;;5004339;28;20740;-85
2022/05/06 11:48:23;;;;;;;9.73;7.07;;;19.10;98.10;;;;;;5026580;28;20218;-84
2022/05/06 11:50:54;;;;;;;12.23;7.77;;;19.20;98.10;;;;;;5021589;28;20199;-84
2022/05/06 11:53:25;;;;;;;11.67;7.00;;;19.40;96.90;;;;;;5037148;28;20224;-83
2022/05/06 11:55:55;;;;;;;9.03;7.27;;;19.40;96.30;;;;;;5012861;28;20192;-84
2022/05/06 11:58:24;;;;;;;7.97;7.00;;;19.50;96.20;;;;;;5030015;28;20208;-85
2022/05/06 12:00:52;;;;;;;7.90;6.70;;;19.50;95.80;;;;;;5012693;28;20922;-83
2022/05/06 12:03:23;;;;;;;8.50;7.50;;;19.50;95.90;;;;;;5030116;28;20267;-84
2022/05/06 12:06:01;;;;;;;8.60;7.00;;;19.50;95.20;;;;;;5021708;28;20864;-84
2022/05/06 12:08:31;;;;;;;11.70;7.27;;;19.30;94.70;;;;;;5043603;28;20239;-85
2022/05/06 12:11:06;;;;;;;8.70;7.03;;;19.10;94.90;;;;;;5011842;28;20849;-87
2022/05/06 12:13:40;;;;;;;9.70;6.47;;;19.10;94.90;;;;;;5021531;28;20456;-85
2022/05/06 12:16:09;;;;;;;8.50;7.20;;;19.30;94.90;;;;;;5027180;28;20208;-87
2022/05/06 12:18:38;;;;;;;8.23;6.60;;;19.30;94.80;;;;;;5030195;28;20240;-86
2022/05/06 12:21:22;;;;;;;8.30;6.53;;;19.30;94.90;;;;;;5016923;28;20219;-86
2022/05/06 12:23:54;;;;;;;9.87;6.67;;;19.60;93.50;;;;;;5043312;28;20223;-86
2022/05/06 12:26:43;;;;;;;11.03;7.37;;;19.70;93.80;;;;;;5027300;28;20306;-85
2022/05/06 12:29:20;;;;;;;8.83;7.50;;;19.70;93.60;;;;;;5000073;28;20907;-87
2022/05/06 12:31:47;;;;;;;9.70;6.70;;;20.00;94.50;;;;;;5011435;28;20642;-86
2022/05/06 12:34:14;;;;;;;10.07;7.13;;;20.30;93.40;;;;;;4996620;28;20220;-87
2022/05/06 12:36:41;;;;;;;8.43;6.97;;;20.30;93.40;;;;;;5014084;28;20223;-86
2022/05/06 12:39:22;;;;;;;7.03;6.33;;;20.30;92.50;;;;;;5020369;28;20238;-87
2022/05/06 12:41:51;;;;;;;7.57;6.60;;;20.10;92.20;;;;;;5023698;28;20200;-86
2022/05/06 12:44:22;;;;;;;8.40;6.10;;;19.90;92.50;;;;;;5007673;28;20422;-86
2022/05/06 12:46:50;;;;;;;7.87;5.77;;;19.90;92.40;;;;;;5029679;28;20212;-86
2022/05/06 12:52:04;;;;;;;8.63;6.23;;;19.80;91.80;;;;;;5030100;28;20327;-87
2022/05/06 12:54:31;;;;;;;6.60;6.00;;;19.90;90.80;;;;;;5035796;28;20227;-85
2022/05/06 12:57:00;;;;;;;5.87;5.27;;;19.90;90.30;;;;;;5017076;28;20204;-87
2022/05/06 12:59:27;;;;;;;7.73;5.70;;;20.00;90.40;;;;;;5007982;28;20807;-85
2022/05/06 13:01:55;;;;;;;8.70;6.30;;;20.10;89.90;;;;;;5015131;28;20211;-86
2022/05/06 13:04:21;;;;;;;6.00;5.40;;;20.20;89.00;;;;;;5012247;28;20530;-85
2022/05/06 13:06:49;;;;;;;5.67;4.77;;;20.40;88.20;;;;;;5015017;28;20669;-86
2022/05/06 13:09:16;;;;;;;8.37;5.93;;;20.60;87.60;;;;;;5010494;28;20238;-85
2022/05/06 13:11:44;;;;;;;7.70;5.00;;;20.70;85.50;;;;;;5038471;28;20242;-86
2022/05/06 13:14:12;;;;;;;6.70;6.00;;;20.80;85.90;;;;;;5025542;28;20223;-87
2022/05/06 13:16:40;;;;;;;7.20;5.80;;;20.90;85.20;;;;;;5030204;28;20200;-86
2022/05/06 13:19:09;;;;;;;8.07;6.20;;;21.10;84.40;;;;;;5010492;28;20266;-87
2022/05/06 13:21:37;;;;;;;7.90;5.87;;;21.10;84.10;;;;;;5003214;28;20310;-86
2022/05/06 13:24:04;;;;;;;7.13;5.30;;;21.10;84.10;;;;;;5019199;28;20246;-87
2022/05/06 13:26:31;;;;;;;7.00;5.03;;;21.10;83.90;;;;;;5030829;28;20270;-86
2022/05/06 13:28:58;;;;;;;5.10;4.70;;;21.40;83.80;;;;;;5011263;28;20219;-86
2022/05/06 13:31:26;;;;;;;8.83;4.80;;;21.40;80.80;;;;;;5023898;28;20936;-86
2022/05/06 13:33:53;;;;;;;8.03;5.40;;;21.40;81.10;;;;;;5011738;28;20223;-86
2022/05/06 13:36:21;;;;;;;5.13;4.63;;;21.30;80.10;;;;;;5023748;28;20275;-86
2022/05/06 13:38:47;;;;;;;6.33;5.20;;;21.20;80.60;;;;;;5016447;28;20196;-85